createdAt,value
2023-06-20T00:02:18.200Z,3.23
2023-06-20T00:04:48.896Z,3.23
2023-06-20T00:07:18.768Z,3.50
2023-06-20T00:09:52.919Z,3.10
2023-06-20T00:12:23.893Z,3.57
2023-06-20T00:14:54.428Z,2.80
2023-06-20T00:17:26.053Z,3.03
2023-06-20T00:19:55.525Z,2.60
2023-06-20T00:22:25.770Z,3.00
2023-06-20T00:24:57.128Z,3.40
2023-06-20T00:27:27.919Z,3.07
2023-06-20T00:29:58.878Z,2.47
2023-06-20T00:32:29.683Z,2.50
2023-06-20T00:34:59.777Z,3.30
2023-06-20T00:37:32.031Z,3.23
2023-06-20T00:40:05.303Z,3.07
2023-06-20T00:42:33.011Z,3.23
2023-06-20T00:45:26.446Z,2.93
2023-06-20T00:47:53.381Z,3.10
2023-06-20T00:50:19.678Z,3.27
2023-06-20T00:52:58.749Z,3.23
2023-06-20T00:55:27.240Z,2.77
2023-06-20T00:57:55.795Z,2.83
2023-06-20T01:00:22.697Z,2.90
2023-06-20T01:03:02.168Z,3.00
2023-06-20T01:05:29.679Z,3.27
2023-06-20T01:08:14.265Z,3.00
2023-06-20T01:11:13.665Z,3.03
2023-06-20T01:14:27.825Z,3.00
2023-06-20T01:17:08.813Z,3.00
2023-06-20T01:19:49.283Z,2.53
2023-06-20T01:22:38.990Z,3.00
2023-06-20T01:25:16.355Z,3.10
2023-06-20T01:27:57.625Z,2.80
2023-06-20T01:30:31.005Z,3.30
2023-06-20T01:33:03.053Z,3.00
2023-06-20T01:35:30.641Z,3.10
2023-06-20T01:38:08.625Z,3.03
2023-06-20T01:40:35.876Z,3.27
2023-06-20T01:43:02.653Z,2.90
2023-06-20T01:45:36.133Z,2.60
2023-06-20T01:48:04.508Z,3.03
2023-06-20T01:50:36.219Z,2.93
2023-06-20T01:53:08.226Z,3.17
2023-06-20T01:55:41.585Z,3.00
2023-06-20T01:58:10.714Z,3.47
2023-06-20T02:00:41.367Z,3.07
2023-06-20T02:03:19.616Z,3.53
2023-06-20T02:05:48.455Z,3.80
2023-06-20T02:08:18.657Z,3.67
2023-06-20T02:10:49.370Z,3.40
2023-06-20T02:13:22.303Z,3.17
2023-06-20T02:15:54.318Z,3.30
2023-06-20T02:18:22.175Z,3.40
2023-06-20T02:20:54.831Z,3.53
2023-06-20T02:23:29.932Z,3.20
2023-06-20T02:26:08.080Z,3.20
2023-06-20T02:28:42.995Z,3.40
2023-06-20T02:31:12.077Z,3.77
2023-06-20T02:33:39.001Z,3.97
2023-06-20T02:36:05.724Z,3.90
2023-06-20T02:38:34.019Z,3.43
2023-06-20T02:41:05.700Z,3.47
2023-06-20T02:43:37.217Z,3.63
2023-06-20T02:46:54.499Z,3.60
2023-06-20T02:49:40.390Z,3.97
2023-06-20T02:52:36.922Z,4.00
2023-06-20T02:55:21.273Z,3.47
2023-06-20T02:57:56.445Z,3.90
2023-06-20T03:00:30.813Z,4.10
2023-06-20T03:03:37.663Z,3.60
2023-06-20T03:06:10.249Z,3.90
2023-06-20T03:08:43.440Z,3.77
2023-06-20T03:11:12.325Z,4.23
2023-06-20T03:13:42.775Z,3.90
2023-06-20T03:16:13.318Z,3.97
2023-06-20T03:18:43.633Z,3.93
2023-06-20T03:21:27.959Z,3.80
2023-06-20T03:23:55.331Z,4.13
2023-06-20T03:26:21.810Z,3.80
2023-06-20T03:28:49.253Z,4.03
2023-06-20T03:31:20.254Z,3.90
2023-06-20T03:33:50.861Z,4.17
2023-06-20T03:36:21.882Z,3.43
2023-06-20T03:38:55.792Z,4.20
2023-06-20T03:41:26.134Z,3.87
2023-06-20T03:43:56.455Z,4.53
2023-06-20T03:46:27.037Z,4.10
2023-06-20T03:48:57.258Z,4.90
2023-06-20T03:51:27.706Z,5.17
2023-06-20T03:53:58.127Z,6.13
2023-06-20T03:56:30.562Z,5.90
2023-06-20T03:59:00.742Z,5.97
2023-06-20T04:01:31.779Z,5.47
2023-06-20T04:04:05.807Z,5.57
2023-06-20T04:06:34.663Z,5.57
2023-06-20T04:09:05.597Z,5.30
2023-06-20T04:11:36.035Z,5.57
2023-06-20T04:14:10.984Z,6.33
2023-06-20T04:16:41.333Z,6.30
2023-06-20T04:19:12.220Z,5.43
2023-06-20T04:21:46.147Z,5.93
2023-06-20T04:24:17.502Z,5.97
2023-06-20T04:26:47.826Z,5.83
2023-06-20T04:29:18.858Z,6.23
2023-06-20T04:31:52.673Z,6.73
2023-06-20T04:34:23.576Z,6.50
2023-06-20T04:36:54.742Z,6.30
2023-06-20T04:39:29.737Z,7.20
2023-06-20T04:41:59.191Z,7.00
2023-06-20T04:44:29.667Z,7.50
2023-06-20T04:47:03.785Z,6.63
2023-06-20T04:49:34.334Z,7.40
2023-06-20T04:52:06.374Z,8.37
2023-06-20T04:54:35.663Z,7.00
2023-06-20T04:57:06.402Z,7.53
2023-06-20T04:59:36.826Z,7.20
2023-06-20T05:02:07.840Z,6.77
2023-06-20T05:04:42.822Z,7.23
2023-06-20T05:07:13.710Z,8.00
2023-06-20T05:09:43.999Z,8.00
2023-06-20T05:12:18.328Z,7.70
2023-06-20T05:14:50.085Z,6.97
2023-06-20T05:17:21.371Z,8.00
2023-06-20T05:19:52.387Z,7.97
2023-06-20T05:22:23.099Z,6.90
2023-06-20T05:24:53.762Z,7.93
2023-06-20T05:27:24.712Z,8.83
2023-06-20T05:29:59.825Z,7.20
2023-06-20T05:32:30.225Z,8.20
2023-06-20T05:35:00.736Z,8.70
2023-06-20T05:37:35.015Z,8.90
2023-06-20T05:40:07.196Z,8.50
2023-06-20T05:42:36.917Z,7.57
2023-06-20T05:45:08.409Z,7.80
2023-06-20T05:47:39.161Z,8.23
2023-06-20T05:50:10.162Z,7.60
2023-06-20T05:52:40.768Z,8.53
2023-06-20T05:55:16.041Z,7.83
2023-06-20T05:57:46.547Z,9.00
2023-06-20T06:00:17.947Z,7.77
2023-06-20T06:02:47.526Z,8.17
2023-06-20T06:05:17.730Z,9.00
2023-06-20T06:07:48.488Z,8.23
2023-06-20T06:10:19.198Z,8.43
2023-06-20T06:12:51.317Z,7.57
2023-06-20T06:15:21.890Z,8.50
2023-06-20T06:17:52.699Z,7.53
2023-06-20T06:20:29.414Z,8.23
2023-06-20T06:22:57.865Z,9.10
2023-06-20T06:25:28.861Z,8.50
2023-06-20T06:27:59.545Z,8.70
2023-06-20T06:30:33.425Z,9.13
2023-06-20T06:33:01.726Z,7.70
2023-06-20T06:35:34.280Z,9.63
2023-06-20T06:38:07.106Z,9.60
2023-06-20T06:40:39.109Z,9.70
2023-06-20T06:43:10.377Z,8.77
2023-06-20T06:45:45.590Z,9.20
2023-06-20T06:48:16.140Z,7.30
2023-06-20T06:50:46.945Z,8.80
2023-06-20T06:53:18.499Z,8.07
2023-06-20T06:55:48.257Z,8.80
2023-06-20T06:58:19.068Z,9.50
2023-06-20T07:00:50.692Z,9.30
2023-06-20T07:03:25.017Z,8.67
2023-06-20T07:05:57.083Z,9.33
2023-06-20T07:08:27.524Z,8.83
2023-06-20T07:11:04.123Z,8.67
2023-06-20T07:13:34.664Z,9.00
2023-06-20T07:16:05.467Z,8.20
2023-06-20T07:18:35.941Z,8.50
2023-06-20T07:21:06.891Z,7.47
2023-06-20T07:23:37.405Z,9.57
2023-06-20T07:26:08.566Z,9.73
2023-06-20T07:28:42.250Z,10.20
2023-06-20T07:31:17.629Z,8.60
2023-06-20T07:33:44.358Z,9.73
2023-06-20T07:36:17.666Z,9.13
2023-06-20T07:38:48.180Z,7.93
2023-06-20T07:41:19.172Z,7.63
2023-06-20T07:43:50.206Z,8.80
2023-06-20T07:46:21.125Z,8.97
2023-06-20T07:48:48.713Z,11.07
2023-06-20T07:51:14.863Z,9.50
2023-06-20T07:53:41.048Z,9.50
2023-06-20T07:56:07.583Z,10.43
2023-06-20T07:58:33.749Z,10.07
2023-06-20T08:01:00.680Z,9.53
2023-06-20T08:03:27.132Z,10.23
2023-06-20T08:05:53.356Z,8.50
2023-06-20T08:08:19.517Z,10.17
2023-06-20T08:10:45.655Z,8.70
2023-06-20T08:13:11.882Z,8.87
2023-06-20T08:15:38.094Z,9.40
2023-06-20T08:18:04.376Z,9.80
2023-06-20T08:20:31.102Z,10.03
2023-06-20T08:22:57.247Z,10.70
2023-06-20T08:25:23.664Z,9.17
2023-06-20T08:27:56.271Z,8.13
2023-06-20T08:30:32.343Z,10.73
2023-06-20T08:32:58.583Z,10.60
2023-06-20T08:35:24.779Z,8.47
2023-06-20T08:37:50.941Z,9.67
2023-06-20T08:40:17.198Z,10.10
2023-06-20T08:42:43.797Z,7.67
2023-06-20T08:45:10.735Z,8.90
2023-06-20T08:47:36.937Z,8.50
2023-06-20T08:50:03.284Z,8.73
2023-06-20T08:52:30.532Z,9.77
2023-06-20T08:54:57.376Z,7.60
2023-06-20T08:57:24.228Z,7.47
2023-06-20T08:59:50.625Z,8.43
2023-06-20T09:02:16.953Z,7.90
2023-06-20T09:04:43.125Z,7.47
2023-06-20T09:07:19.425Z,8.07
2023-06-20T09:09:45.815Z,8.80
2023-06-20T09:12:11.963Z,7.33
2023-06-20T09:14:38.157Z,7.70
2023-06-20T09:17:04.976Z,8.60
2023-06-20T09:19:43.089Z,8.30
2023-06-20T09:22:13.115Z,7.70
2023-06-20T09:24:45.245Z,7.47
2023-06-20T09:27:11.902Z,7.40
2023-06-20T09:29:51.612Z,6.80
2023-06-20T09:32:21.561Z,7.00
2023-06-20T09:34:48.006Z,7.10
2023-06-20T09:37:17.846Z,6.40
2023-06-20T09:39:44.314Z,6.90
2023-06-20T09:42:13.919Z,6.10
2023-06-20T09:44:40.988Z,6.60
2023-06-20T09:47:07.764Z,5.60
2023-06-20T09:49:39.932Z,6.00
2023-06-20T09:52:08.438Z,6.20
2023-06-20T09:54:45.005Z,6.17
2023-06-20T09:57:14.164Z,5.50
2023-06-20T09:59:42.377Z,5.50
2023-06-20T10:02:10.140Z,4.93
2023-06-20T10:04:43.150Z,5.00
2023-06-20T10:07:13.020Z,5.40
2023-06-20T10:09:40.713Z,5.50
2023-06-20T10:12:08.584Z,5.17
2023-06-20T10:14:34.829Z,5.20
2023-06-20T10:17:08.222Z,5.60
2023-06-20T10:19:50.973Z,5.60
2023-06-20T10:22:37.497Z,6.17
2023-06-20T10:25:15.040Z,5.83
2023-06-20T10:27:43.318Z,5.97
2023-06-20T10:30:13.378Z,5.50
2023-06-20T10:33:09.569Z,6.00
2023-06-20T10:35:35.861Z,4.90
2023-06-20T10:38:11.255Z,5.83
2023-06-20T10:40:37.914Z,5.97
2023-06-20T10:43:16.497Z,5.87
2023-06-20T10:46:02.697Z,6.93
2023-06-20T10:48:29.034Z,5.73
2023-06-20T10:51:01.354Z,5.70
2023-06-20T10:53:28.550Z,6.80
2023-06-20T10:55:54.760Z,7.37
2023-06-20T10:58:31.840Z,6.20
2023-06-20T11:00:59.545Z,5.90
2023-06-20T11:03:26.045Z,5.80
2023-06-20T11:05:54.547Z,5.13
2023-06-20T11:08:22.613Z,5.27
2023-06-20T11:10:48.919Z,5.67
2023-06-20T11:13:15.099Z,5.70
2023-06-20T11:15:41.283Z,5.73
2023-06-20T11:18:10.704Z,5.07
2023-06-20T11:20:41.913Z,4.90
2023-06-20T11:23:10.933Z,5.40
2023-06-20T11:25:38.751Z,5.20
2023-06-20T11:28:15.303Z,5.90
2023-06-20T11:30:43.580Z,5.33
2023-06-20T11:33:14.586Z,4.80
2023-06-20T11:35:52.833Z,4.90
2023-06-20T11:38:20.776Z,4.83
2023-06-20T11:40:51.245Z,4.30
2023-06-20T11:43:27.159Z,4.47
2023-06-20T11:46:00.307Z,4.60
2023-06-20T11:48:27.170Z,4.57
2023-06-20T11:50:58.296Z,4.63
2023-06-20T11:53:28.614Z,5.30
2023-06-20T11:55:58.257Z,5.00
2023-06-20T11:58:26.766Z,4.30
2023-06-20T12:01:04.803Z,5.20
2023-06-20T12:03:31.794Z,4.33
2023-06-20T12:05:58.310Z,4.20
2023-06-20T12:08:25.582Z,4.13
2023-06-20T12:11:00.334Z,4.40
2023-06-20T12:13:27.106Z,4.00
2023-06-20T12:15:53.402Z,4.37
2023-06-20T12:18:19.641Z,4.70
2023-06-20T12:20:59.008Z,3.90
2023-06-20T12:23:29.379Z,4.40
2023-06-20T12:26:01.027Z,4.43
2023-06-20T12:28:33.006Z,4.70
2023-06-20T12:30:59.937Z,4.00
2023-06-20T12:33:35.068Z,4.33
2023-06-20T12:36:07.694Z,3.90
2023-06-20T12:38:34.565Z,4.33
2023-06-20T12:41:01.364Z,3.93
2023-06-20T12:43:32.902Z,4.47
2023-06-20T12:46:01.635Z,4.30
2023-06-20T12:48:28.638Z,4.13
2023-06-20T12:50:54.822Z,4.13
2023-06-20T12:53:28.314Z,4.00
2023-06-20T12:55:58.264Z,3.40
2023-06-20T12:58:24.468Z,4.23
2023-06-20T13:00:51.875Z,4.37
2023-06-20T13:03:19.351Z,3.77
2023-06-20T13:05:50.492Z,4.33
2023-06-20T13:08:21.357Z,4.07
2023-06-20T13:10:54.062Z,4.47
2023-06-20T13:13:26.765Z,4.70
2023-06-20T13:15:56.655Z,3.80
2023-06-20T13:18:28.097Z,4.20
2023-06-20T13:20:58.791Z,4.00
2023-06-20T13:23:30.112Z,4.23
2023-06-20T13:26:00.850Z,3.90
2023-06-20T13:28:33.896Z,4.10
2023-06-20T13:31:03.996Z,4.30
2023-06-20T13:33:34.904Z,3.90
2023-06-20T13:36:08.785Z,4.00
2023-06-20T13:38:41.013Z,3.57
2023-06-20T13:41:11.319Z,3.90
2023-06-20T13:43:40.364Z,3.80
2023-06-20T13:46:11.775Z,3.70
2023-06-20T13:48:42.291Z,3.67
2023-06-20T13:51:12.636Z,3.77
2023-06-20T13:53:45.663Z,4.10
2023-06-20T13:56:15.896Z,4.07
2023-06-20T13:58:46.385Z,3.97
2023-06-20T14:01:16.739Z,4.40
2023-06-20T14:03:47.795Z,4.13
2023-06-20T14:06:18.697Z,4.97
2023-06-20T14:08:49.322Z,4.33
2023-06-20T14:11:26.378Z,3.93
2023-06-20T14:13:56.499Z,4.13
2023-06-20T14:16:26.844Z,3.93
2023-06-20T14:19:03.064Z,3.93
2023-06-20T14:21:33.658Z,3.60
2023-06-20T14:24:04.971Z,4.40
2023-06-20T14:26:39.839Z,4.03
2023-06-20T14:29:10.180Z,4.03
2023-06-20T14:31:39.442Z,4.00
2023-06-20T14:34:09.804Z,3.10
2023-06-20T14:36:41.077Z,4.13
2023-06-20T14:39:11.293Z,4.07
2023-06-20T14:41:41.534Z,4.03
2023-06-20T14:44:13.170Z,4.00
2023-06-20T14:46:44.053Z,4.23
2023-06-20T14:49:14.353Z,5.07
2023-06-20T14:51:46.840Z,3.90
2023-06-20T14:54:18.265Z,4.37
2023-06-20T14:56:50.224Z,4.57
2023-06-20T14:59:19.362Z,4.10
2023-06-20T15:01:52.886Z,4.30
2023-06-20T15:04:22.758Z,4.13
2023-06-20T15:06:53.120Z,3.77
2023-06-20T15:09:23.869Z,4.17
2023-06-20T15:11:54.299Z,3.90
2023-06-20T15:14:25.351Z,4.37
2023-06-20T15:16:55.256Z,4.67
2023-06-20T15:19:27.177Z,4.40
2023-06-20T15:21:58.176Z,4.60
2023-06-20T15:24:32.871Z,4.07
2023-06-20T15:27:00.345Z,4.33
2023-06-20T15:29:32.214Z,4.13
2023-06-20T15:32:02.770Z,4.23
2023-06-20T15:34:33.337Z,3.90
2023-06-20T15:37:05.539Z,3.90
2023-06-20T15:39:37.200Z,4.60
2023-06-20T15:42:07.490Z,4.63
2023-06-20T15:44:42.355Z,4.20
2023-06-20T15:47:10.977Z,4.60
2023-06-20T15:49:42.360Z,4.60
2023-06-20T15:52:13.881Z,4.20
2023-06-20T15:54:46.033Z,4.27
2023-06-20T15:57:16.932Z,4.97
2023-06-20T15:59:49.889Z,4.90
2023-06-20T16:02:19.417Z,4.40
2023-06-20T16:04:48.733Z,4.20
2023-06-20T16:07:20.409Z,4.60
2023-06-20T16:09:49.909Z,4.50
2023-06-20T16:12:21.524Z,4.30
2023-06-20T16:14:52.515Z,5.00
2023-06-20T16:17:23.742Z,4.60
2023-06-20T16:19:54.070Z,4.10
2023-06-20T16:22:25.525Z,4.33
2023-06-20T16:24:56.814Z,4.30
2023-06-20T16:27:26.430Z,4.87
2023-06-20T16:29:58.117Z,4.40
2023-06-20T16:32:29.592Z,4.53
2023-06-20T16:34:59.852Z,4.63
2023-06-20T16:37:30.090Z,4.40
2023-06-20T16:40:01.651Z,5.13
2023-06-20T16:42:32.624Z,4.63
2023-06-20T16:45:01.997Z,5.03
2023-06-20T16:47:32.247Z,5.20
2023-06-20T16:50:03.454Z,4.83
2023-06-20T16:52:33.185Z,4.30
2023-06-20T16:55:03.946Z,4.97
2023-06-20T16:57:37.742Z,5.07
2023-06-20T17:00:08.975Z,4.63
2023-06-20T17:02:38.461Z,4.83
2023-06-20T17:05:09.842Z,5.07
2023-06-20T17:07:40.290Z,4.90
2023-06-20T17:10:11.157Z,5.03
2023-06-20T17:12:41.274Z,4.50
2023-06-20T17:15:15.641Z,4.87
2023-06-20T17:17:44.957Z,4.70
2023-06-20T17:20:16.694Z,4.90
2023-06-20T17:22:46.289Z,4.67
2023-06-20T17:25:16.660Z,5.10
2023-06-20T17:27:46.718Z,4.83
2023-06-20T17:30:17.258Z,4.63
2023-06-20T17:32:53.802Z,4.70
2023-06-20T17:35:22.325Z,4.67
2023-06-20T17:37:52.789Z,4.83
2023-06-20T17:40:23.590Z,4.50
2023-06-20T17:42:54.371Z,5.07
2023-06-20T17:45:24.922Z,4.70
2023-06-20T17:47:55.584Z,4.93
2023-06-20T17:50:29.230Z,4.50
2023-06-20T17:52:59.344Z,4.83
2023-06-20T17:55:29.979Z,5.00
2023-06-20T17:58:02.012Z,5.50
2023-06-20T18:00:30.721Z,6.27
2023-06-20T18:03:01.420Z,5.90
2023-06-20T18:05:32.235Z,5.73
2023-06-20T18:08:06.589Z,5.57
2023-06-20T18:10:38.382Z,5.20
2023-06-20T18:13:07.722Z,4.90
2023-06-20T18:15:39.593Z,4.93
2023-06-20T18:18:08.985Z,5.33
2023-06-20T18:20:39.580Z,5.47
2023-06-20T18:23:11.343Z,5.67
2023-06-20T18:25:46.683Z,5.90
2023-06-20T18:28:16.896Z,5.60
2023-06-20T18:30:47.481Z,6.03
2023-06-20T18:33:17.758Z,6.13
2023-06-20T18:35:48.503Z,5.87
2023-06-20T18:38:18.986Z,5.87
2023-06-20T18:40:49.676Z,6.10
2023-06-20T18:43:24.778Z,5.83
2023-06-20T18:45:56.032Z,6.03
2023-06-20T18:48:26.569Z,6.03
2023-06-20T18:51:00.510Z,5.83
2023-06-20T18:53:31.781Z,5.80
2023-06-20T18:56:02.848Z,6.33
2023-06-20T18:58:32.522Z,5.93
2023-06-20T19:01:04.841Z,5.90
2023-06-20T19:03:35.127Z,6.27
2023-06-20T19:06:06.270Z,6.20
2023-06-20T19:08:38.640Z,6.00
2023-06-20T19:11:09.366Z,5.93
2023-06-20T19:13:40.537Z,6.67
2023-06-20T19:16:11.612Z,6.30
2023-06-20T19:18:41.259Z,6.40
2023-06-20T19:21:11.729Z,6.30
2023-06-20T19:23:42.008Z,5.87
2023-06-20T19:26:16.397Z,6.00
2023-06-20T19:28:47.551Z,6.87
2023-06-20T19:31:18.520Z,6.97
2023-06-20T19:33:48.783Z,6.70
2023-06-20T19:36:19.579Z,6.77
2023-06-20T19:38:51.666Z,6.80
2023-06-20T19:41:22.649Z,9.03
2023-06-20T19:43:57.630Z,6.47
2023-06-20T19:46:28.346Z,7.00
2023-06-20T19:49:01.506Z,6.60
2023-06-20T19:51:39.025Z,5.83
2023-06-20T19:54:07.211Z,6.97
2023-06-20T19:56:38.845Z,6.70
2023-06-20T19:59:13.447Z,6.50
2023-06-20T20:01:44.876Z,6.37
2023-06-20T20:04:15.176Z,6.00
2023-06-20T20:06:46.518Z,6.33
2023-06-20T20:09:17.835Z,6.50
2023-06-20T20:11:48.892Z,6.90
2023-06-20T20:14:19.340Z,7.60
2023-06-20T20:16:54.340Z,7.53
2023-06-20T20:19:27.365Z,7.73
2023-06-20T20:21:55.999Z,8.83
2023-06-20T20:24:27.356Z,7.23
2023-06-20T20:26:58.655Z,8.00
2023-06-20T20:29:29.219Z,8.60
2023-06-20T20:31:59.782Z,7.80
2023-06-20T20:34:34.642Z,8.70
2023-06-20T20:37:01.369Z,10.20
2023-06-20T20:39:33.092Z,9.63
2023-06-20T20:42:07.094Z,10.87
2023-06-20T20:44:37.658Z,8.73
2023-06-20T20:47:08.180Z,9.70
2023-06-20T20:49:38.451Z,9.10
2023-06-20T20:52:10.237Z,8.67
2023-06-20T20:54:41.224Z,8.33
2023-06-20T20:57:12.239Z,8.77
2023-06-20T20:59:46.306Z,8.73
2023-06-20T21:02:19.654Z,8.33
2023-06-20T21:04:47.633Z,9.40
2023-06-20T21:07:18.113Z,8.77
2023-06-20T21:09:51.492Z,8.90
2023-06-20T21:12:20.854Z,8.03
2023-06-20T21:14:50.646Z,9.40
2023-06-20T21:17:27.554Z,8.23
2023-06-20T21:19:56.355Z,8.57
2023-06-20T21:22:27.312Z,8.13
2023-06-20T21:24:57.292Z,8.50
2023-06-20T21:27:27.898Z,8.50
2023-06-20T21:29:58.196Z,9.73
2023-06-20T21:32:28.772Z,9.90
2023-06-20T21:35:03.365Z,9.77
2023-06-20T21:37:34.577Z,11.10
2023-06-20T21:40:07.149Z,10.33
2023-06-20T21:42:44.583Z,10.57
2023-06-20T21:45:14.070Z,9.97
2023-06-20T21:47:44.444Z,10.30
2023-06-20T21:50:20.028Z,9.33
2023-06-20T21:52:46.297Z,10.30
2023-06-20T21:55:15.732Z,11.20
2023-06-20T21:57:46.982Z,9.80
2023-06-20T22:00:20.305Z,9.90
2023-06-20T22:02:51.050Z,9.60
2023-06-20T22:05:22.008Z,9.23
2023-06-20T22:07:55.536Z,9.10
2023-06-20T22:10:26.980Z,7.10
2023-06-20T22:12:58.122Z,6.97
2023-06-20T22:15:27.993Z,6.10
2023-06-20T22:17:58.521Z,5.87
2023-06-20T22:20:29.490Z,5.03
2023-06-20T22:22:59.948Z,5.40
2023-06-20T22:25:36.061Z,4.30
2023-06-20T22:28:07.026Z,4.33
2023-06-20T22:30:37.669Z,4.60
2023-06-20T22:33:11.793Z,4.70
2023-06-20T22:35:42.770Z,3.93
2023-06-20T22:38:15.283Z,4.40
2023-06-20T22:40:44.373Z,5.13
2023-06-20T22:43:16.154Z,4.90
2023-06-20T22:45:47.752Z,4.70
2023-06-20T22:48:18.428Z,5.20
2023-06-20T22:50:55.121Z,4.70
2023-06-20T22:53:27.803Z,4.00
2023-06-20T22:55:56.279Z,3.90
2023-06-20T22:58:30.337Z,4.63
2023-06-20T23:01:01.358Z,4.40
2023-06-20T23:03:33.303Z,4.00
2023-06-20T23:06:16.581Z,4.20
2023-06-20T23:08:44.627Z,4.23
2023-06-20T23:11:15.171Z,4.07
2023-06-20T23:13:46.130Z,4.57
2023-06-20T23:16:17.042Z,4.70
2023-06-20T23:18:48.838Z,4.27
2023-06-20T23:21:20.170Z,4.80
2023-06-20T23:23:55.172Z,3.90
2023-06-20T23:26:25.708Z,4.10
2023-06-20T23:28:56.164Z,4.10
2023-06-20T23:31:32.272Z,4.67
2023-06-20T23:34:03.484Z,4.70
2023-06-20T23:36:32.124Z,4.87
2023-06-20T23:39:04.248Z,5.00
2023-06-20T23:41:33.956Z,5.43
2023-06-20T23:44:03.845Z,4.60
2023-06-20T23:46:35.085Z,4.60
2023-06-20T23:49:10.830Z,5.20
2023-06-20T23:51:41.701Z,5.03
2023-06-20T23:54:11.989Z,5.50
2023-06-20T23:56:45.566Z,5.80
2023-06-20T23:59:16.506Z,5.20
